sensor_id;sensor_type;location;lat;lon;timestamp;P1;durP1;ratioP1;P2;durP2;ratioP2
27402;SDS011;14862;49.494;8.530;2022-07-30T00:01:32;10.20;;;8.02;;
27402;SDS011;14862;49.494;8.530;2022-07-30T00:03:58;10.02;;;8.23;;
27402;SDS011;14862;49.494;8.530;2022-07-30T00:06:23;10.90;;;7.82;;
27402;SDS011;14862;49.494;8.530;2022-07-30T00:08:48;10.85;;;7.88;;
27402;SDS011;14862;49.494;8.530;2022-07-30T00:11:14;9.25;;;7.88;;
27402;SDS011;14862;49.494;8.530;2022-07-30T00:13:39;10.00;;;7.90;;
27402;SDS011;14862;49.494;8.530;2022-07-30T00:16:04;11.20;;;7.93;;
27402;SDS011;14862;49.494;8.530;2022-07-30T00:18:30;9.68;;;8.77;;
27402;SDS011;14862;49.494;8.530;2022-07-30T00:20:55;12.82;;;9.90;;
27402;SDS011;14862;49.494;8.530;2022-07-30T00:23:21;11.48;;;9.55;;
27402;SDS011;14862;49.494;8.530;2022-07-30T00:25:46;15.95;;;11.15;;
27402;SDS011;14862;49.494;8.530;2022-07-30T00:28:11;14.50;;;10.18;;
27402;SDS011;14862;49.494;8.530;2022-07-30T00:30:36;15.87;;;9.43;;
27402;SDS011;14862;49.494;8.530;2022-07-30T00:33:02;11.23;;;10.00;;
27402;SDS011;14862;49.494;8.530;2022-07-30T00:35:28;11.55;;;9.55;;
27402;SDS011;14862;49.494;8.530;2022-07-30T00:37:53;13.90;;;10.63;;
27402;SDS011;14862;49.494;8.530;2022-07-30T00:40:18;10.75;;;9.48;;
27402;SDS011;14862;49.494;8.530;2022-07-30T00:42:44;12.45;;;10.88;;
27402;SDS011;14862;49.494;8.530;2022-07-30T00:45:10;12.63;;;11.40;;
27402;SDS011;14862;49.494;8.530;2022-07-30T00:47:36;12.70;;;11.20;;
27402;SDS011;14862;49.494;8.530;2022-07-30T00:50:01;12.43;;;11.10;;
27402;SDS011;14862;49.494;8.530;2022-07-30T00:52:29;12.63;;;11.30;;
27402;SDS011;14862;49.494;8.530;2022-07-30T00:54:54;12.93;;;11.00;;
27402;SDS011;14862;49.494;8.530;2022-07-30T00:57:20;14.48;;;12.02;;
27402;SDS011;14862;49.494;8.530;2022-07-30T00:59:45;15.30;;;12.13;;
27402;SDS011;14862;49.494;8.530;2022-07-30T01:02:10;15.83;;;13.63;;
27402;SDS011;14862;49.494;8.530;2022-07-30T01:04:36;13.68;;;12.23;;
27402;SDS011;14862;49.494;8.530;2022-07-30T01:07:02;16.03;;;13.33;;
27402;SDS011;14862;49.494;8.530;2022-07-30T01:09:27;15.60;;;13.73;;
27402;SDS011;14862;49.494;8.530;2022-07-30T01:11:52;17.10;;;14.73;;
27402;SDS011;14862;49.494;8.530;2022-07-30T01:14:17;15.35;;;13.68;;
27402;SDS011;14862;49.494;8.530;2022-07-30T01:16:43;14.52;;;12.95;;
27402;SDS011;14862;49.494;8.530;2022-07-30T01:19:11;14.88;;;13.30;;
27402;SDS011;14862;49.494;8.530;2022-07-30T01:22:26;17.33;;;13.90;;
27402;SDS011;14862;49.494;8.530;2022-07-30T01:27:25;15.45;;;13.07;;
27402;SDS011;14862;49.494;8.530;2022-07-30T01:29:52;17.20;;;14.43;;
27402;SDS011;14862;49.494;8.530;2022-07-30T01:32:18;16.08;;;14.45;;
27402;SDS011;14862;49.494;8.530;2022-07-30T01:34:45;16.73;;;14.95;;
27402;SDS011;14862;49.494;8.530;2022-07-30T01:37:11;18.77;;;14.57;;
27402;SDS011;14862;49.494;8.530;2022-07-30T01:39:37;14.23;;;12.65;;
27402;SDS011;14862;49.494;8.530;2022-07-30T01:42:03;14.90;;;13.30;;
27402;SDS011;14862;49.494;8.530;2022-07-30T01:44:31;15.05;;;13.45;;
27402;SDS011;14862;49.494;8.530;2022-07-30T01:46:56;15.20;;;13.68;;
27402;SDS011;14862;49.494;8.530;2022-07-30T01:49:22;17.58;;;14.73;;
27402;SDS011;14862;49.494;8.530;2022-07-30T01:51:50;18.50;;;16.25;;
27402;SDS011;14862;49.494;8.530;2022-07-30T01:54:15;16.05;;;14.55;;
27402;SDS011;14862;49.494;8.530;2022-07-30T01:56:42;14.02;;;12.73;;
27402;SDS011;14862;49.494;8.530;2022-07-30T01:59:08;14.90;;;13.23;;
27402;SDS011;14862;49.494;8.530;2022-07-30T02:01:34;17.30;;;14.23;;
27402;SDS011;14862;49.494;8.530;2022-07-30T02:04:00;19.88;;;17.75;;
27402;SDS011;14862;49.494;8.530;2022-07-30T02:06:28;20.15;;;16.98;;
27402;SDS011;14862;49.494;8.530;2022-07-30T02:08:57;17.20;;;15.30;;
27402;SDS011;14862;49.494;8.530;2022-07-30T02:11:24;17.77;;;15.98;;
27402;SDS011;14862;49.494;8.530;2022-07-30T02:16:36;19.25;;;16.88;;
27402;SDS011;14862;49.494;8.530;2022-07-30T02:19:04;17.60;;;15.90;;
27402;SDS011;14862;49.494;8.530;2022-07-30T02:21:31;17.70;;;15.43;;
27402;SDS011;14862;49.494;8.530;2022-07-30T02:24:01;17.10;;;15.32;;
27402;SDS011;14862;49.494;8.530;2022-07-30T02:26:29;22.42;;;16.77;;
27402;SDS011;14862;49.494;8.530;2022-07-30T02:28:55;19.85;;;16.88;;
27402;SDS011;14862;49.494;8.530;2022-07-30T02:31:24;17.00;;;15.13;;
27402;SDS011;14862;49.494;8.530;2022-07-30T02:33:52;16.42;;;14.65;;
27402;SDS011;14862;49.494;8.530;2022-07-30T02:36:18;17.00;;;15.20;;
27402;SDS011;14862;49.494;8.530;2022-07-30T02:38:44;17.88;;;15.77;;
27402;SDS011;14862;49.494;8.530;2022-07-30T02:41:10;19.88;;;15.50;;
27402;SDS011;14862;49.494;8.530;2022-07-30T02:43:35;17.02;;;14.63;;
27402;SDS011;14862;49.494;8.530;2022-07-30T02:46:01;14.27;;;12.75;;
27402;SDS011;14862;49.494;8.530;2022-07-30T02:48:27;16.20;;;12.80;;
27402;SDS011;14862;49.494;8.530;2022-07-30T02:50:53;14.85;;;13.48;;
27402;SDS011;14862;49.494;8.530;2022-07-30T02:53:19;14.27;;;11.90;;
27402;SDS011;14862;49.494;8.530;2022-07-30T02:55:45;12.90;;;11.60;;
27402;SDS011;14862;49.494;8.530;2022-07-30T02:58:11;14.68;;;12.77;;
27402;SDS011;14862;49.494;8.530;2022-07-30T03:00:39;15.55;;;14.05;;
27402;SDS011;14862;49.494;8.530;2022-07-30T03:03:06;16.35;;;14.65;;
27402;SDS011;14862;49.494;8.530;2022-07-30T03:05:32;17.15;;;14.05;;
27402;SDS011;14862;49.494;8.530;2022-07-30T03:07:58;16.08;;;13.50;;
27402;SDS011;14862;49.494;8.530;2022-07-30T03:10:24;14.85;;;13.32;;
27402;SDS011;14862;49.494;8.530;2022-07-30T03:12:50;15.07;;;13.50;;
27402;SDS011;14862;49.494;8.530;2022-07-30T03:15:15;15.18;;;13.30;;
27402;SDS011;14862;49.494;8.530;2022-07-30T03:17:44;15.63;;;13.98;;
27402;SDS011;14862;49.494;8.530;2022-07-30T03:20:11;14.98;;;11.75;;
27402;SDS011;14862;49.494;8.530;2022-07-30T03:22:39;14.65;;;13.15;;
27402;SDS011;14862;49.494;8.530;2022-07-30T03:25:05;14.75;;;13.13;;
27402;SDS011;14862;49.494;8.530;2022-07-30T03:27:31;18.50;;;14.40;;
27402;SDS011;14862;49.494;8.530;2022-07-30T03:29:56;16.48;;;14.85;;
27402;SDS011;14862;49.494;8.530;2022-07-30T03:32:23;16.80;;;15.10;;
27402;SDS011;14862;49.494;8.530;2022-07-30T03:34:48;17.00;;;15.20;;
27402;SDS011;14862;49.494;8.530;2022-07-30T03:37:14;17.25;;;15.32;;
27402;SDS011;14862;49.494;8.530;2022-07-30T03:39:40;17.20;;;15.50;;
27402;SDS011;14862;49.494;8.530;2022-07-30T03:42:06;19.63;;;14.77;;
27402;SDS011;14862;49.494;8.530;2022-07-30T03:44:32;17.75;;;14.02;;
27402;SDS011;14862;49.494;8.530;2022-07-30T03:46:57;15.95;;;14.25;;
27402;SDS011;14862;49.494;8.530;2022-07-30T03:49:23;17.60;;;13.27;;
27402;SDS011;14862;49.494;8.530;2022-07-30T03:51:49;16.20;;;13.90;;
27402;SDS011;14862;49.494;8.530;2022-07-30T03:54:16;13.45;;;11.88;;
27402;SDS011;14862;49.494;8.530;2022-07-30T03:56:41;14.38;;;11.80;;
27402;SDS011;14862;49.494;8.530;2022-07-30T03:59:07;14.45;;;12.98;;
27402;SDS011;14862;49.494;8.530;2022-07-30T04:01:32;16.60;;;12.05;;
27402;SDS011;14862;49.494;8.530;2022-07-30T04:04:07;16.30;;;12.77;;
27402;SDS011;14862;49.494;8.530;2022-07-30T04:06:33;13.02;;;11.77;;
27402;SDS011;14862;49.494;8.530;2022-07-30T04:09:03;13.60;;;12.20;;
27402;SDS011;14862;49.494;8.530;2022-07-30T04:11:28;12.90;;;11.50;;
27402;SDS011;14862;49.494;8.530;2022-07-30T04:13:54;12.88;;;11.68;;
27402;SDS011;14862;49.494;8.530;2022-07-30T04:16:22;14.98;;;13.45;;
27402;SDS011;14862;49.494;8.530;2022-07-30T04:18:50;16.02;;;14.32;;
27402;SDS011;14862;49.494;8.530;2022-07-30T04:21:17;16.55;;;13.23;;
27402;SDS011;14862;49.494;8.530;2022-07-30T04:23:43;12.20;;;10.63;;
27402;SDS011;14862;49.494;8.530;2022-07-30T04:26:09;11.63;;;9.00;;
27402;SDS011;14862;49.494;8.530;2022-07-30T04:28:35;9.27;;;7.65;;
27402;SDS011;14862;49.494;8.530;2022-07-30T04:31:01;9.48;;;6.90;;
27402;SDS011;14862;49.494;8.530;2022-07-30T04:33:26;10.65;;;7.28;;
27402;SDS011;14862;49.494;8.530;2022-07-30T04:35:52;9.35;;;6.47;;
27402;SDS011;14862;49.494;8.530;2022-07-30T04:38:18;6.30;;;5.55;;
27402;SDS011;14862;49.494;8.530;2022-07-30T04:40:44;5.78;;;5.15;;
27402;SDS011;14862;49.494;8.530;2022-07-30T04:43:09;5.82;;;5.30;;
27402;SDS011;14862;49.494;8.530;2022-07-30T04:45:35;6.28;;;5.30;;
27402;SDS011;14862;49.494;8.530;2022-07-30T04:48:00;7.72;;;5.00;;
27402;SDS011;14862;49.494;8.530;2022-07-30T04:50:26;7.78;;;5.03;;
27402;SDS011;14862;49.494;8.530;2022-07-30T04:52:52;7.45;;;5.45;;
27402;SDS011;14862;49.494;8.530;2022-07-30T04:55:18;8.98;;;6.30;;
27402;SDS011;14862;49.494;8.530;2022-07-30T04:57:44;8.63;;;5.50;;
27402;SDS011;14862;49.494;8.530;2022-07-30T05:00:11;10.23;;;5.80;;
27402;SDS011;14862;49.494;8.530;2022-07-30T05:02:36;6.22;;;5.18;;
27402;SDS011;14862;49.494;8.530;2022-07-30T05:05:03;8.98;;;5.85;;
27402;SDS011;14862;49.494;8.530;2022-07-30T05:07:29;12.23;;;5.65;;
27402;SDS011;14862;49.494;8.530;2022-07-30T05:09:55;8.63;;;5.68;;
27402;SDS011;14862;49.494;8.530;2022-07-30T05:12:20;8.40;;;5.47;;
27402;SDS011;14862;49.494;8.530;2022-07-30T05:14:46;7.17;;;5.13;;
27402;SDS011;14862;49.494;8.530;2022-07-30T05:17:11;8.63;;;5.28;;
27402;SDS011;14862;49.494;8.530;2022-07-30T05:19:36;8.18;;;5.97;;
27402;SDS011;14862;49.494;8.530;2022-07-30T05:22:01;7.47;;;5.50;;
27402;SDS011;14862;49.494;8.530;2022-07-30T05:24:27;7.55;;;6.28;;
27402;SDS011;14862;49.494;8.530;2022-07-30T05:26:52;6.70;;;5.83;;
27402;SDS011;14862;49.494;8.530;2022-07-30T05:29:17;7.47;;;5.50;;
27402;SDS011;14862;49.494;8.530;2022-07-30T05:31:42;5.80;;;5.20;;
27402;SDS011;14862;49.494;8.530;2022-07-30T05:34:07;6.40;;;4.77;;
27402;SDS011;14862;49.494;8.530;2022-07-30T05:36:33;7.07;;;5.65;;
27402;SDS011;14862;49.494;8.530;2022-07-30T05:38:58;9.85;;;5.20;;
27402;SDS011;14862;49.494;8.530;2022-07-30T05:41:24;5.60;;;4.80;;
27402;SDS011;14862;49.494;8.530;2022-07-30T05:43:51;7.57;;;5.38;;
27402;SDS011;14862;49.494;8.530;2022-07-30T05:46:17;7.22;;;5.32;;
27402;SDS011;14862;49.494;8.530;2022-07-30T05:48:42;5.67;;;5.10;;
27402;SDS011;14862;49.494;8.530;2022-07-30T05:51:07;6.87;;;5.30;;
27402;SDS011;14862;49.494;8.530;2022-07-30T05:53:32;6.60;;;5.40;;
27402;SDS011;14862;49.494;8.530;2022-07-30T05:55:57;6.30;;;5.63;;
27402;SDS011;14862;49.494;8.530;2022-07-30T05:58:23;5.53;;;4.82;;
27402;SDS011;14862;49.494;8.530;2022-07-30T06:00:48;5.05;;;4.55;;
27402;SDS011;14862;49.494;8.530;2022-07-30T06:03:13;6.53;;;5.17;;
27402;SDS011;14862;49.494;8.530;2022-07-30T06:05:38;6.50;;;4.90;;
27402;SDS011;14862;49.494;8.530;2022-07-30T06:08:04;8.77;;;5.07;;
27402;SDS011;14862;49.494;8.530;2022-07-30T06:10:29;6.65;;;5.30;;
27402;SDS011;14862;49.494;8.530;2022-07-30T06:12:55;9.82;;;4.88;;
27402;SDS011;14862;49.494;8.530;2022-07-30T06:15:20;6.65;;;4.55;;
27402;SDS011;14862;49.494;8.530;2022-07-30T06:17:46;6.73;;;5.03;;
27402;SDS011;14862;49.494;8.530;2022-07-30T06:20:12;8.23;;;4.88;;
27402;SDS011;14862;49.494;8.530;2022-07-30T06:22:37;6.72;;;5.25;;
27402;SDS011;14862;49.494;8.530;2022-07-30T06:25:02;6.53;;;5.00;;
27402;SDS011;14862;49.494;8.530;2022-07-30T06:27:28;5.47;;;4.80;;
27402;SDS011;14862;49.494;8.530;2022-07-30T06:29:53;7.47;;;5.00;;
27402;SDS011;14862;49.494;8.530;2022-07-30T06:32:18;5.22;;;4.53;;
27402;SDS011;14862;49.494;8.530;2022-07-30T06:34:44;6.50;;;5.20;;
27402;SDS011;14862;49.494;8.530;2022-07-30T06:37:09;7.75;;;4.72;;
27402;SDS011;14862;49.494;8.530;2022-07-30T06:39:34;9.65;;;4.85;;
27402;SDS011;14862;49.494;8.530;2022-07-30T06:42:00;8.17;;;4.17;;
27402;SDS011;14862;49.494;8.530;2022-07-30T06:44:25;8.27;;;4.60;;
27402;SDS011;14862;49.494;8.530;2022-07-30T06:46:50;7.70;;;4.73;;
27402;SDS011;14862;49.494;8.530;2022-07-30T06:49:15;7.80;;;4.57;;
27402;SDS011;14862;49.494;8.530;2022-07-30T06:51:41;11.68;;;5.00;;
27402;SDS011;14862;49.494;8.530;2022-07-30T06:54:06;6.63;;;4.83;;
27402;SDS011;14862;49.494;8.530;2022-07-30T06:56:31;6.67;;;4.27;;
27402;SDS011;14862;49.494;8.530;2022-07-30T06:58:56;7.53;;;4.50;;
27402;SDS011;14862;49.494;8.530;2022-07-30T07:01:21;7.53;;;4.53;;
27402;SDS011;14862;49.494;8.530;2022-07-30T07:03:48;7.85;;;4.18;;
27402;SDS011;14862;49.494;8.530;2022-07-30T07:06:14;7.53;;;4.50;;
27402;SDS011;14862;49.494;8.530;2022-07-30T07:08:39;9.00;;;5.73;;
27402;SDS011;14862;49.494;8.530;2022-07-30T07:11:04;6.38;;;4.53;;
27402;SDS011;14862;49.494;8.530;2022-07-30T07:13:29;9.05;;;5.10;;
27402;SDS011;14862;49.494;8.530;2022-07-30T07:15:55;6.53;;;4.70;;
27402;SDS011;14862;49.494;8.530;2022-07-30T07:18:21;7.75;;;4.47;;
27402;SDS011;14862;49.494;8.530;2022-07-30T07:20:46;6.47;;;4.43;;
27402;SDS011;14862;49.494;8.530;2022-07-30T07:23:11;8.95;;;4.60;;
27402;SDS011;14862;49.494;8.530;2022-07-30T07:25:36;10.13;;;5.17;;
27402;SDS011;14862;49.494;8.530;2022-07-30T07:28:02;5.13;;;4.50;;
27402;SDS011;14862;49.494;8.530;2022-07-30T07:30:28;5.53;;;4.80;;
27402;SDS011;14862;49.494;8.530;2022-07-30T07:32:54;9.73;;;4.93;;
27402;SDS011;14862;49.494;8.530;2022-07-30T07:35:19;7.90;;;4.47;;
27402;SDS011;14862;49.494;8.530;2022-07-30T07:37:44;5.97;;;5.30;;
27402;SDS011;14862;49.494;8.530;2022-07-30T07:40:13;9.33;;;5.17;;
27402;SDS011;14862;49.494;8.530;2022-07-30T07:42:38;8.52;;;4.80;;
27402;SDS011;14862;49.494;8.530;2022-07-30T07:45:03;10.23;;;4.83;;
27402;SDS011;14862;49.494;8.530;2022-07-30T07:47:29;10.75;;;5.93;;
27402;SDS011;14862;49.494;8.530;2022-07-30T07:49:54;8.23;;;5.47;;
27402;SDS011;14862;49.494;8.530;2022-07-30T07:52:20;10.52;;;5.28;;
27402;SDS011;14862;49.494;8.530;2022-07-30T07:54:45;8.23;;;4.50;;
27402;SDS011;14862;49.494;8.530;2022-07-30T07:57:10;9.40;;;5.73;;
27402;SDS011;14862;49.494;8.530;2022-07-30T07:59:36;7.93;;;5.65;;
27402;SDS011;14862;49.494;8.530;2022-07-30T08:02:01;5.68;;;4.65;;
27402;SDS011;14862;49.494;8.530;2022-07-30T08:04:27;18.13;;;5.63;;
27402;SDS011;14862;49.494;8.530;2022-07-30T08:06:52;11.95;;;6.75;;
27402;SDS011;14862;49.494;8.530;2022-07-30T08:09:17;13.25;;;6.78;;
27402;SDS011;14862;49.494;8.530;2022-07-30T08:11:42;12.37;;;6.00;;
27402;SDS011;14862;49.494;8.530;2022-07-30T08:14:08;13.00;;;5.80;;
27402;SDS011;14862;49.494;8.530;2022-07-30T08:16:33;6.30;;;5.20;;
27402;SDS011;14862;49.494;8.530;2022-07-30T08:18:58;8.40;;;6.30;;
27402;SDS011;14862;49.494;8.530;2022-07-30T08:21:23;11.70;;;6.27;;
27402;SDS011;14862;49.494;8.530;2022-07-30T08:23:49;18.37;;;5.93;;
27402;SDS011;14862;49.494;8.530;2022-07-30T08:26:14;11.23;;;6.03;;
27402;SDS011;14862;49.494;8.530;2022-07-30T08:28:40;11.05;;;6.95;;
27402;SDS011;14862;49.494;8.530;2022-07-30T08:31:07;7.22;;;6.50;;
27402;SDS011;14862;49.494;8.530;2022-07-30T08:33:32;9.85;;;6.25;;
27402;SDS011;14862;49.494;8.530;2022-07-30T08:35:57;7.35;;;6.50;;
27402;SDS011;14862;49.494;8.530;2022-07-30T08:38:23;10.83;;;6.53;;
27402;SDS011;14862;49.494;8.530;2022-07-30T08:40:48;11.73;;;7.00;;
27402;SDS011;14862;49.494;8.530;2022-07-30T08:43:13;7.47;;;5.93;;
27402;SDS011;14862;49.494;8.530;2022-07-30T08:45:39;9.18;;;6.28;;
27402;SDS011;14862;49.494;8.530;2022-07-30T08:48:09;10.57;;;6.20;;
27402;SDS011;14862;49.494;8.530;2022-07-30T08:50:35;9.68;;;6.28;;
27402;SDS011;14862;49.494;8.530;2022-07-30T08:53:00;10.75;;;5.72;;
27402;SDS011;14862;49.494;8.530;2022-07-30T08:55:25;10.45;;;5.63;;
27402;SDS011;14862;49.494;8.530;2022-07-30T08:57:51;11.75;;;5.30;;
27402;SDS011;14862;49.494;8.530;2022-07-30T09:00:16;8.13;;;5.20;;
27402;SDS011;14862;49.494;8.530;2022-07-30T09:02:42;10.02;;;4.93;;
27402;SDS011;14862;49.494;8.530;2022-07-30T09:05:08;7.88;;;3.50;;
27402;SDS011;14862;49.494;8.530;2022-07-30T09:07:33;7.28;;;4.32;;
27402;SDS011;14862;49.494;8.530;2022-07-30T09:09:58;9.63;;;3.85;;
27402;SDS011;14862;49.494;8.530;2022-07-30T09:17:27;6.70;;;3.40;;
27402;SDS011;14862;49.494;8.530;2022-07-30T09:20:02;4.70;;;2.70;;
27402;SDS011;14862;49.494;8.530;2022-07-30T09:22:39;7.68;;;3.08;;
27402;SDS011;14862;49.494;8.530;2022-07-30T09:25:06;5.10;;;2.60;;
27402;SDS011;14862;49.494;8.530;2022-07-30T09:27:47;3.72;;;3.20;;
27402;SDS011;14862;49.494;8.530;2022-07-30T09:30:13;7.38;;;3.13;;
27402;SDS011;14862;49.494;8.530;2022-07-30T09:32:54;7.68;;;4.03;;
27402;SDS011;14862;49.494;8.530;2022-07-30T09:35:21;3.45;;;2.40;;
27402;SDS011;14862;49.494;8.530;2022-07-30T09:37:58;8.00;;;2.92;;
27402;SDS011;14862;49.494;8.530;2022-07-30T09:40:24;4.15;;;3.28;;
27402;SDS011;14862;49.494;8.530;2022-07-30T09:42:59;9.02;;;4.03;;
27402;SDS011;14862;49.494;8.530;2022-07-30T09:45:25;5.68;;;2.65;;
27402;SDS011;14862;49.494;8.530;2022-07-30T09:47:50;5.63;;;2.70;;
27402;SDS011;14862;49.494;8.530;2022-07-30T09:50:16;6.20;;;3.17;;
27402;SDS011;14862;49.494;8.530;2022-07-30T09:52:43;5.38;;;3.08;;
27402;SDS011;14862;49.494;8.530;2022-07-30T09:55:08;5.93;;;2.85;;
27402;SDS011;14862;49.494;8.530;2022-07-30T09:57:34;5.65;;;2.80;;
27402;SDS011;14862;49.494;8.530;2022-07-30T10:00:15;9.70;;;2.63;;
27402;SDS011;14862;49.494;8.530;2022-07-30T10:02:40;3.30;;;2.35;;
27402;SDS011;14862;49.494;8.530;2022-07-30T10:05:09;3.92;;;2.60;;
27402;SDS011;14862;49.494;8.530;2022-07-30T10:07:35;5.65;;;3.05;;
27402;SDS011;14862;49.494;8.530;2022-07-30T10:10:00;7.55;;;3.20;;
27402;SDS011;14862;49.494;8.530;2022-07-30T10:12:26;5.05;;;2.70;;
27402;SDS011;14862;49.494;8.530;2022-07-30T10:14:52;9.57;;;3.30;;
27402;SDS011;14862;49.494;8.530;2022-07-30T10:17:18;5.43;;;3.03;;
27402;SDS011;14862;49.494;8.530;2022-07-30T10:19:43;9.20;;;2.75;;
27402;SDS011;14862;49.494;8.530;2022-07-30T10:22:11;6.00;;;3.10;;
27402;SDS011;14862;49.494;8.530;2022-07-30T10:24:37;8.02;;;2.80;;
27402;SDS011;14862;49.494;8.530;2022-07-30T10:27:04;8.27;;;2.55;;
27402;SDS011;14862;49.494;8.530;2022-07-30T10:29:32;4.55;;;2.70;;
27402;SDS011;14862;49.494;8.530;2022-07-30T10:31:57;7.13;;;3.30;;
27402;SDS011;14862;49.494;8.530;2022-07-30T10:34:24;7.07;;;2.80;;
27402;SDS011;14862;49.494;8.530;2022-07-30T10:36:51;9.38;;;2.90;;
27402;SDS011;14862;49.494;8.530;2022-07-30T10:39:19;4.63;;;2.92;;
27402;SDS011;14862;49.494;8.530;2022-07-30T10:47:04;7.60;;;2.47;;
27402;SDS011;14862;49.494;8.530;2022-07-30T10:49:30;5.45;;;2.38;;
27402;SDS011;14862;49.494;8.530;2022-07-30T10:51:56;9.75;;;2.92;;
27402;SDS011;14862;49.494;8.530;2022-07-30T10:54:34;5.75;;;2.50;;
27402;SDS011;14862;49.494;8.530;2022-07-30T10:57:03;4.88;;;2.55;;
27402;SDS011;14862;49.494;8.530;2022-07-30T10:59:29;4.82;;;2.60;;
27402;SDS011;14862;49.494;8.530;2022-07-30T11:02:15;4.00;;;2.35;;
27402;SDS011;14862;49.494;8.530;2022-07-30T11:04:41;6.07;;;2.15;;
27402;SDS011;14862;49.494;8.530;2022-07-30T11:09:47;4.78;;;2.10;;
27402;SDS011;14862;49.494;8.530;2022-07-30T11:12:13;12.90;;;2.63;;
27402;SDS011;14862;49.494;8.530;2022-07-30T11:17:15;4.68;;;2.25;;
27402;SDS011;14862;49.494;8.530;2022-07-30T11:24:50;5.38;;;2.20;;
27402;SDS011;14862;49.494;8.530;2022-07-30T11:29:59;5.35;;;2.35;;
27402;SDS011;14862;49.494;8.530;2022-07-30T11:32:30;6.55;;;2.40;;
27402;SDS011;14862;49.494;8.530;2022-07-30T11:35:12;5.03;;;2.25;;
27402;SDS011;14862;49.494;8.530;2022-07-30T11:45:38;6.38;;;1.83;;
27402;SDS011;14862;49.494;8.530;2022-07-30T11:48:08;4.55;;;2.05;;
27402;SDS011;14862;49.494;8.530;2022-07-30T11:50:33;7.75;;;2.00;;
27402;SDS011;14862;49.494;8.530;2022-07-30T11:53:00;3.85;;;2.00;;
27402;SDS011;14862;49.494;8.530;2022-07-30T11:55:27;2.25;;;1.98;;
27402;SDS011;14862;49.494;8.530;2022-07-30T11:57:54;7.68;;;2.30;;
27402;SDS011;14862;49.494;8.530;2022-07-30T12:00:21;8.13;;;2.08;;
27402;SDS011;14862;49.494;8.530;2022-07-30T12:02:46;9.88;;;2.22;;
27402;SDS011;14862;49.494;8.530;2022-07-30T12:05:15;2.78;;;1.63;;
27402;SDS011;14862;49.494;8.530;2022-07-30T12:07:46;4.47;;;2.10;;
27402;SDS011;14862;49.494;8.530;2022-07-30T12:10:12;7.00;;;2.63;;
27402;SDS011;14862;49.494;8.530;2022-07-30T12:12:38;5.72;;;2.22;;
27402;SDS011;14862;49.494;8.530;2022-07-30T12:15:04;3.25;;;2.10;;
27402;SDS011;14862;49.494;8.530;2022-07-30T12:17:42;3.63;;;2.25;;
27402;SDS011;14862;49.494;8.530;2022-07-30T12:20:14;3.28;;;2.17;;
27402;SDS011;14862;49.494;8.530;2022-07-30T12:22:39;2.92;;;2.00;;
27402;SDS011;14862;49.494;8.530;2022-07-30T12:25:07;4.57;;;1.83;;
27402;SDS011;14862;49.494;8.530;2022-07-30T12:27:33;4.10;;;2.15;;
27402;SDS011;14862;49.494;8.530;2022-07-30T12:29:58;5.00;;;1.80;;
27402;SDS011;14862;49.494;8.530;2022-07-30T12:32:24;5.30;;;2.35;;
27402;SDS011;14862;49.494;8.530;2022-07-30T12:34:52;2.85;;;2.00;;
27402;SDS011;14862;49.494;8.530;2022-07-30T12:37:21;3.47;;;2.20;;
27402;SDS011;14862;49.494;8.530;2022-07-30T12:39:46;6.90;;;2.30;;
27402;SDS011;14862;49.494;8.530;2022-07-30T12:42:19;4.03;;;2.03;;
27402;SDS011;14862;49.494;8.530;2022-07-30T12:44:44;3.90;;;1.35;;
27402;SDS011;14862;49.494;8.530;2022-07-30T12:47:25;5.67;;;2.00;;
27402;SDS011;14862;49.494;8.530;2022-07-30T12:49:51;3.65;;;1.67;;
27402;SDS011;14862;49.494;8.530;2022-07-30T12:52:27;5.88;;;1.77;;
27402;SDS011;14862;49.494;8.530;2022-07-30T12:55:10;2.90;;;1.85;;
27402;SDS011;14862;49.494;8.530;2022-07-30T13:00:20;4.45;;;1.77;;
27402;SDS011;14862;49.494;8.530;2022-07-30T13:02:46;6.85;;;2.15;;
27402;SDS011;14862;49.494;8.530;2022-07-30T13:05:14;4.85;;;1.90;;
27402;SDS011;14862;49.494;8.530;2022-07-30T13:07:56;4.05;;;1.70;;
27402;SDS011;14862;49.494;8.530;2022-07-30T13:10:21;3.55;;;1.80;;
27402;SDS011;14862;49.494;8.530;2022-07-30T13:12:47;2.85;;;1.77;;
27402;SDS011;14862;49.494;8.530;2022-07-30T13:15:16;2.38;;;1.70;;
27402;SDS011;14862;49.494;8.530;2022-07-30T13:17:41;2.55;;;1.80;;
27402;SDS011;14862;49.494;8.530;2022-07-30T13:20:07;4.67;;;1.90;;
27402;SDS011;14862;49.494;8.530;2022-07-30T13:22:32;3.95;;;1.80;;
27402;SDS011;14862;49.494;8.530;2022-07-30T13:24:58;3.03;;;1.50;;
27402;SDS011;14862;49.494;8.530;2022-07-30T13:27:24;9.88;;;1.70;;
27402;SDS011;14862;49.494;8.530;2022-07-30T13:29:49;2.17;;;1.50;;
27402;SDS011;14862;49.494;8.530;2022-07-30T13:32:14;6.23;;;1.77;;
27402;SDS011;14862;49.494;8.530;2022-07-30T13:34:40;3.17;;;1.70;;
27402;SDS011;14862;49.494;8.530;2022-07-30T13:37:06;5.18;;;1.55;;
27402;SDS011;14862;49.494;8.530;2022-07-30T13:39:31;2.83;;;1.90;;
27402;SDS011;14862;49.494;8.530;2022-07-30T13:41:56;4.13;;;1.60;;
27402;SDS011;14862;49.494;8.530;2022-07-30T13:44:22;2.73;;;1.60;;
27402;SDS011;14862;49.494;8.530;2022-07-30T13:46:47;3.63;;;1.75;;
27402;SDS011;14862;49.494;8.530;2022-07-30T13:49:12;2.27;;;2.07;;
27402;SDS011;14862;49.494;8.530;2022-07-30T13:51:37;4.70;;;1.90;;
27402;SDS011;14862;49.494;8.530;2022-07-30T13:54:03;5.13;;;1.93;;
27402;SDS011;14862;49.494;8.530;2022-07-30T13:56:29;4.35;;;1.75;;
27402;SDS011;14862;49.494;8.530;2022-07-30T13:58:54;3.55;;;2.20;;
27402;SDS011;14862;49.494;8.530;2022-07-30T14:01:20;3.65;;;1.50;;
27402;SDS011;14862;49.494;8.530;2022-07-30T14:03:45;3.22;;;1.60;;
27402;SDS011;14862;49.494;8.530;2022-07-30T14:06:10;1.45;;;1.20;;
27402;SDS011;14862;49.494;8.530;2022-07-30T14:08:36;4.57;;;2.10;;
27402;SDS011;14862;49.494;8.530;2022-07-30T14:11:01;3.15;;;1.70;;
27402;SDS011;14862;49.494;8.530;2022-07-30T14:13:27;6.03;;;2.67;;
27402;SDS011;14862;49.494;8.530;2022-07-30T14:15:59;4.57;;;2.50;;
27402;SDS011;14862;49.494;8.530;2022-07-30T14:18:24;2.13;;;1.40;;
27402;SDS011;14862;49.494;8.530;2022-07-30T14:20:49;2.67;;;1.75;;
27402;SDS011;14862;49.494;8.530;2022-07-30T14:23:17;3.38;;;1.33;;
27402;SDS011;14862;49.494;8.530;2022-07-30T14:25:42;3.47;;;1.50;;
27402;SDS011;14862;49.494;8.530;2022-07-30T14:28:08;4.25;;;1.40;;
27402;SDS011;14862;49.494;8.530;2022-07-30T14:30:33;2.80;;;1.53;;
27402;SDS011;14862;49.494;8.530;2022-07-30T14:32:58;4.13;;;1.10;;
27402;SDS011;14862;49.494;8.530;2022-07-30T14:35:24;2.13;;;0.97;;
27402;SDS011;14862;49.494;8.530;2022-07-30T14:37:49;3.92;;;1.42;;
27402;SDS011;14862;49.494;8.530;2022-07-30T14:40:14;5.77;;;1.43;;
27402;SDS011;14862;49.494;8.530;2022-07-30T14:42:39;5.40;;;1.23;;
27402;SDS011;14862;49.494;8.530;2022-07-30T14:45:06;3.63;;;1.38;;
27402;SDS011;14862;49.494;8.530;2022-07-30T14:47:31;4.97;;;1.35;;
27402;SDS011;14862;49.494;8.530;2022-07-30T14:49:57;1.90;;;1.17;;
27402;SDS011;14862;49.494;8.530;2022-07-30T14:52:22;1.13;;;1.00;;
27402;SDS011;14862;49.494;8.530;2022-07-30T14:54:47;2.03;;;1.20;;
27402;SDS011;14862;49.494;8.530;2022-07-30T14:57:12;2.63;;;1.17;;
27402;SDS011;14862;49.494;8.530;2022-07-30T14:59:38;2.30;;;1.50;;
27402;SDS011;14862;49.494;8.530;2022-07-30T15:02:03;4.53;;;1.00;;
27402;SDS011;14862;49.494;8.530;2022-07-30T15:04:28;1.90;;;1.50;;
27402;SDS011;14862;49.494;8.530;2022-07-30T15:06:53;2.03;;;1.20;;
27402;SDS011;14862;49.494;8.530;2022-07-30T15:09:19;5.45;;;1.30;;
27402;SDS011;14862;49.494;8.530;2022-07-30T15:11:44;3.03;;;1.43;;
27402;SDS011;14862;49.494;8.530;2022-07-30T15:14:09;3.72;;;1.10;;
27402;SDS011;14862;49.494;8.530;2022-07-30T15:16:36;3.70;;;1.10;;